createdAt,value
2023-02-19T00:00:26.321Z,98059.16
2023-02-19T00:02:36.995Z,98056.50
2023-02-19T00:04:45.180Z,98057.34
2023-02-19T00:06:53.967Z,98059.25
2023-02-19T00:09:02.004Z,98060.44
2023-02-19T00:11:11.820Z,98054.78
2023-02-19T00:13:19.858Z,98057.84
2023-02-19T00:15:27.827Z,98062.84
2023-02-19T00:17:38.884Z,98068.56
2023-02-19T00:19:46.764Z,98061.47
2023-02-19T00:21:55.747Z,98056.50
2023-02-19T00:24:05.547Z,98060.19
2023-02-19T00:26:18.430Z,98059.16
2023-02-19T00:28:28.410Z,98065.50
2023-02-19T00:30:36.307Z,98066.28
2023-02-19T00:32:47.216Z,98063.53
2023-02-19T00:34:55.465Z,98057.53
2023-02-19T00:37:03.328Z,98050.50
2023-02-19T00:39:19.641Z,98057.69
2023-02-19T00:41:29.135Z,98053.09
2023-02-19T00:43:36.930Z,98063.78
2023-02-19T00:45:45.594Z,98062.66
2023-02-19T00:47:59.713Z,98072.28
2023-02-19T00:50:07.804Z,98073.28
2023-02-19T00:52:15.719Z,98078.59
2023-02-19T00:54:24.822Z,98082.19
2023-02-19T00:56:32.668Z,98076.03
2023-02-19T00:58:42.562Z,98074.22
2023-02-19T01:00:50.558Z,98073.97
2023-02-19T01:03:01.105Z,98080.31
2023-02-19T01:05:09.921Z,98095.56
2023-02-19T01:07:17.796Z,98095.22
2023-02-19T01:09:25.819Z,98100.41
2023-02-19T01:11:33.741Z,98083.13
2023-02-19T01:13:42.847Z,98085.75
2023-02-19T01:15:50.679Z,98092.63
2023-02-19T01:18:01.342Z,98078.09
2023-02-19T01:20:09.823Z,98077.28
2023-02-19T01:22:17.822Z,98081.84
2023-02-19T01:24:25.929Z,98066.63
2023-02-19T01:26:35.793Z,98068.06
2023-02-19T01:28:44.687Z,98066.44
2023-02-19T01:30:52.983Z,98075.31
2023-02-19T01:33:03.764Z,98071.22
2023-02-19T01:35:11.737Z,98074.81
2023-02-19T01:37:19.610Z,98073.13
2023-02-19T01:39:27.508Z,98068.97
2023-02-19T01:41:39.702Z,98068.38
2023-02-19T01:44:07.979Z,98059.19
2023-02-19T01:46:16.604Z,98055.75
2023-02-19T01:48:30.366Z,98055.78
2023-02-19T01:50:44.249Z,98054.72
2023-02-19T01:52:52.265Z,98056.81
2023-02-19T01:55:02.006Z,98047.66
2023-02-19T01:57:15.232Z,98055.38
2023-02-19T01:59:23.539Z,98059.19
2023-02-19T02:01:31.547Z,98058.34
2023-02-19T02:03:44.766Z,98048.13
2023-02-19T02:05:58.866Z,98048.50
2023-02-19T02:08:22.858Z,98051.84
2023-02-19T02:10:31.005Z,98052.78
2023-02-19T02:12:38.698Z,98052.69
2023-02-19T02:14:50.433Z,98056.31
2023-02-19T02:17:07.881Z,98052.91
2023-02-19T02:19:35.120Z,98048.13
2023-02-19T02:22:01.209Z,98047.97
2023-02-19T02:24:24.158Z,98049.88
2023-02-19T02:26:49.082Z,98050.91
2023-02-19T02:29:25.714Z,98043.03
2023-02-19T02:31:42.898Z,98044.38
2023-02-19T02:33:59.076Z,98039.31
2023-02-19T02:36:10.669Z,98038.03
2023-02-19T02:38:23.130Z,98032.28
2023-02-19T02:40:31.022Z,98034.16
2023-02-19T02:42:43.050Z,98022.72
2023-02-19T02:45:05.996Z,98028.28
2023-02-19T02:47:31.441Z,98025.00
2023-02-19T02:49:59.800Z,98016.34
2023-02-19T02:52:28.091Z,98016.50
2023-02-19T02:54:50.125Z,98015.00
2023-02-19T02:57:01.439Z,98018.53
2023-02-19T02:59:15.675Z,98012.97
2023-02-19T03:01:40.793Z,98018.06
2023-02-19T03:03:56.363Z,98016.97
2023-02-19T03:06:06.266Z,98017.34
2023-02-19T03:08:17.716Z,98009.72
2023-02-19T03:10:30.709Z,98017.25
2023-02-19T03:13:04.151Z,98015.84
2023-02-19T03:15:43.401Z,98015.06
2023-02-19T03:18:08.376Z,98009.38
2023-02-19T03:20:22.998Z,98004.38
2023-02-19T03:22:33.830Z,98006.41
2023-02-19T03:24:58.482Z,98008.69
2023-02-19T03:27:07.863Z,98004.53
2023-02-19T03:29:27.766Z,97991.88
2023-02-19T03:31:48.963Z,97996.94
2023-02-19T03:34:00.784Z,97999.00
2023-02-19T03:36:15.776Z,98001.06
2023-02-19T03:38:27.956Z,97992.06
2023-02-19T03:40:41.992Z,97992.09
2023-02-19T03:43:02.180Z,97987.75
2023-02-19T03:45:28.266Z,97986.72
2023-02-19T03:47:45.217Z,97988.69
2023-02-19T03:49:59.580Z,97986.47
2023-02-19T03:52:18.286Z,97986.97
2023-02-19T03:54:35.506Z,97992.81
2023-02-19T03:56:52.218Z,97991.84
2023-02-19T03:59:05.002Z,97993.91
2023-02-19T04:01:18.360Z,97999.56
2023-02-19T04:03:32.414Z,97992.91
2023-02-19T04:05:44.828Z,97999.56
2023-02-19T04:08:00.275Z,98002.22
2023-02-19T04:10:14.118Z,97993.75
2023-02-19T04:12:26.532Z,97999.91
2023-02-19T04:14:40.147Z,97999.03
2023-02-19T04:16:52.871Z,97994.84
2023-02-19T04:19:04.965Z,98008.28
2023-02-19T04:21:13.511Z,98011.47
2023-02-19T04:23:29.287Z,98014.53
2023-02-19T04:25:39.008Z,98016.06
2023-02-19T04:27:48.740Z,98024.47
2023-02-19T04:29:56.868Z,98026.34
2023-02-19T04:32:05.159Z,98027.63
2023-02-19T04:34:12.984Z,98022.34
2023-02-19T04:36:21.252Z,98038.34
2023-02-19T04:38:31.733Z,98035.00
2023-02-19T04:40:39.533Z,98042.28
2023-02-19T04:42:47.328Z,98052.47
2023-02-19T04:44:55.123Z,98058.38
2023-02-19T04:47:02.970Z,98053.75
2023-02-19T04:49:10.997Z,98060.94
2023-02-19T04:51:18.839Z,98066.06
2023-02-19T04:53:26.623Z,98068.47
2023-02-19T04:55:39.717Z,98084.84
2023-02-19T04:57:47.439Z,98088.19
2023-02-19T04:59:55.259Z,98083.91
2023-02-19T05:02:03.120Z,98084.38
2023-02-19T05:04:10.920Z,98087.56
2023-02-19T05:06:18.748Z,98094.84
2023-02-19T05:08:28.160Z,98088.16
2023-02-19T05:10:38.886Z,98092.53
2023-02-19T05:12:47.145Z,98083.88
2023-02-19T05:14:55.195Z,98080.28
2023-02-19T05:17:03.031Z,98081.47
2023-02-19T05:19:13.819Z,98080.97
2023-02-19T05:21:21.980Z,98082.25
2023-02-19T05:23:28.125Z,98090.25
2023-02-19T05:25:38.918Z,98091.91
2023-02-19T05:27:47.007Z,98089.88
2023-02-19T05:29:54.906Z,98094.16
2023-02-19T05:32:02.951Z,98091.06
2023-02-19T05:34:10.913Z,98080.13
2023-02-19T05:36:18.713Z,98081.81
2023-02-19T05:38:27.568Z,98080.72
2023-02-19T05:40:38.293Z,98081.44
2023-02-19T05:42:46.215Z,98091.50
2023-02-19T05:44:53.996Z,98098.09
2023-02-19T05:47:02.115Z,98091.75
2023-02-19T05:49:09.904Z,98100.00
2023-02-19T05:51:20.041Z,98098.34
2023-02-19T05:53:27.935Z,98096.41
2023-02-19T05:55:40.035Z,98102.97
2023-02-19T05:57:49.877Z,98108.69
2023-02-19T05:59:59.500Z,98106.28
2023-02-19T06:02:07.284Z,98100.13
2023-02-19T06:04:17.287Z,98107.66
2023-02-19T06:06:26.391Z,98104.56
2023-02-19T06:08:34.706Z,98117.41
2023-02-19T06:10:45.791Z,98127.19
2023-02-19T06:12:56.203Z,98123.25
2023-02-19T06:15:04.650Z,98126.50
2023-02-19T06:17:12.417Z,98130.78
2023-02-19T06:19:20.245Z,98128.44
2023-02-19T06:21:28.406Z,98133.94
2023-02-19T06:23:36.445Z,98136.56
2023-02-19T06:25:46.808Z,98147.78
2023-02-19T06:27:54.631Z,98141.91
2023-02-19T06:30:02.456Z,98145.19
2023-02-19T06:32:10.655Z,98139.16
2023-02-19T06:34:18.494Z,98142.97
2023-02-19T06:36:26.812Z,98150.75
2023-02-19T06:38:34.779Z,98156.06
2023-02-19T06:40:42.568Z,98161.56
2023-02-19T06:42:53.101Z,98153.72
2023-02-19T06:45:02.508Z,98147.91
2023-02-19T06:47:10.673Z,98154.69
2023-02-19T06:49:18.996Z,98159.75
2023-02-19T06:51:28.928Z,98161.22
2023-02-19T06:53:36.860Z,98171.44
2023-02-19T06:55:44.698Z,98181.41
2023-02-19T06:57:55.285Z,98189.28
2023-02-19T07:00:04.780Z,98183.34
2023-02-19T07:02:15.177Z,98183.94
2023-02-19T07:04:23.071Z,98197.22
2023-02-19T07:06:31.284Z,98194.66
2023-02-19T07:08:39.170Z,98194.53
2023-02-19T07:10:47.062Z,98212.81
2023-02-19T07:12:57.533Z,98217.41
2023-02-19T07:15:05.402Z,98223.59
2023-02-19T07:17:13.266Z,98221.63
2023-02-19T07:19:21.041Z,98207.69
2023-02-19T07:21:29.989Z,98209.84
2023-02-19T07:23:38.311Z,98216.50
2023-02-19T07:25:46.095Z,98223.50
2023-02-19T07:27:53.899Z,98236.69
2023-02-19T07:30:04.831Z,98238.09
2023-02-19T07:32:12.695Z,98232.41
2023-02-19T07:34:21.042Z,98239.91
2023-02-19T07:36:29.156Z,98236.88
2023-02-19T07:38:37.332Z,98235.78
2023-02-19T07:40:45.250Z,98223.53
2023-02-19T07:42:53.332Z,98229.09
2023-02-19T07:45:03.947Z,98237.19
2023-02-19T07:47:12.052Z,98234.19
2023-02-19T07:49:19.923Z,98228.41
2023-02-19T07:51:27.715Z,98228.81
2023-02-19T07:53:37.247Z,98234.91
2023-02-19T07:55:45.158Z,98226.94
2023-02-19T07:57:52.891Z,98217.34
2023-02-19T08:00:00.690Z,98232.06
2023-02-19T08:02:30.829Z,98235.97
2023-02-19T08:04:38.677Z,98232.22
2023-02-19T08:06:49.230Z,98233.31
2023-02-19T08:08:57.987Z,98240.41
2023-02-19T08:11:20.042Z,98235.56
2023-02-19T08:13:28.156Z,98234.78
2023-02-19T08:15:36.522Z,98231.97
2023-02-19T08:17:46.981Z,98236.09
2023-02-19T08:19:54.770Z,98242.63
2023-02-19T08:22:02.574Z,98246.75
2023-02-19T08:24:10.626Z,98257.72
2023-02-19T08:26:18.801Z,98269.22
2023-02-19T08:28:27.425Z,98277.75
2023-02-19T08:30:36.347Z,98280.53
2023-02-19T08:32:46.684Z,98292.63
2023-02-19T08:34:54.517Z,98292.78
2023-02-19T08:37:02.344Z,98293.97
2023-02-19T08:39:10.338Z,98303.50
2023-02-19T08:41:18.627Z,98300.56
2023-02-19T08:43:26.766Z,98302.38
2023-02-19T08:45:35.563Z,98297.72
2023-02-19T08:47:46.327Z,98306.28
2023-02-19T08:49:54.274Z,98299.03
2023-02-19T08:52:02.261Z,98299.56
2023-02-19T08:54:11.090Z,98314.06
2023-02-19T08:56:20.368Z,98309.28
2023-02-19T08:58:28.671Z,98305.69
2023-02-19T09:00:36.491Z,98306.78
2023-02-19T09:02:47.189Z,98314.25
2023-02-19T09:04:55.054Z,98309.44
2023-02-19T09:07:02.885Z,98308.91
2023-02-19T09:09:13.863Z,98320.16
2023-02-19T09:11:21.779Z,98328.44
2023-02-19T09:13:29.591Z,98329.97
2023-02-19T09:15:40.976Z,98330.00
2023-02-19T09:17:54.683Z,98338.34
2023-02-19T09:20:02.610Z,98340.59
2023-02-19T09:22:10.675Z,98352.41
2023-02-19T09:24:18.422Z,98339.69
2023-02-19T09:26:27.351Z,98347.47
2023-02-19T09:28:35.720Z,98348.38
2023-02-19T09:30:45.155Z,98353.81
2023-02-19T09:32:55.707Z,98357.47
2023-02-19T09:35:03.955Z,98356.00
2023-02-19T09:37:12.075Z,98346.75
2023-02-19T09:39:19.944Z,98358.31
2023-02-19T09:41:33.831Z,98361.22
2023-02-19T09:43:45.669Z,98344.66
2023-02-19T09:46:01.334Z,98349.56
2023-02-19T09:48:14.900Z,98351.81
2023-02-19T09:50:35.814Z,98351.22
2023-02-19T09:52:48.591Z,98363.31
2023-02-19T09:54:59.544Z,98367.13
2023-02-19T09:57:08.342Z,98369.34
2023-02-19T09:59:23.036Z,98374.06
2023-02-19T10:01:36.574Z,98381.56
2023-02-19T10:03:50.658Z,98374.50
2023-02-19T10:05:59.059Z,98370.72
2023-02-19T10:08:10.545Z,98369.78
2023-02-19T10:10:32.050Z,98358.88
2023-02-19T10:12:57.120Z,98362.03
2023-02-19T10:15:13.820Z,98363.38
2023-02-19T10:17:26.644Z,98359.66
2023-02-19T10:19:44.869Z,98375.78
2023-02-19T10:21:52.836Z,98385.94
2023-02-19T10:24:09.957Z,98392.72
2023-02-19T10:26:17.955Z,98382.34
2023-02-19T10:28:31.771Z,98382.03
2023-02-19T10:30:40.035Z,98386.06
2023-02-19T10:33:02.611Z,98388.81
2023-02-19T10:35:16.040Z,98391.16
2023-02-19T10:37:26.097Z,98386.78
2023-02-19T10:39:46.510Z,98384.22
2023-02-19T10:41:58.959Z,98388.06
2023-02-19T10:44:10.759Z,98385.78
2023-02-19T10:46:23.172Z,98382.34
2023-02-19T10:48:33.106Z,98394.50
2023-02-19T10:50:49.114Z,98401.13
2023-02-19T10:52:59.905Z,98400.25
2023-02-19T10:55:28.416Z,98393.97
2023-02-19T10:57:38.271Z,98399.13
2023-02-19T10:59:54.491Z,98402.34
2023-02-19T11:02:04.271Z,98406.78
2023-02-19T11:04:20.449Z,98401.16
2023-02-19T11:06:33.467Z,98405.22
2023-02-19T11:08:59.115Z,98409.00
2023-02-19T11:11:07.559Z,98410.44
2023-02-19T11:13:19.883Z,98410.59
2023-02-19T11:15:31.956Z,98403.94
2023-02-19T11:17:40.199Z,98397.88
2023-02-19T11:19:49.016Z,98405.03
2023-02-19T11:22:01.080Z,98409.81
2023-02-19T11:24:10.827Z,98403.97
2023-02-19T11:26:22.059Z,98410.75
2023-02-19T11:28:37.846Z,98406.91
2023-02-19T11:30:47.029Z,98410.94
2023-02-19T11:32:54.878Z,98423.72
2023-02-19T11:35:18.946Z,98421.78
2023-02-19T11:37:29.517Z,98427.59
2023-02-19T11:39:37.750Z,98426.84
2023-02-19T11:42:05.729Z,98424.38
2023-02-19T11:44:30.396Z,98425.88
2023-02-19T11:46:45.857Z,98426.03
2023-02-19T11:49:04.458Z,98413.34
2023-02-19T11:51:23.018Z,98423.13
2023-02-19T11:53:37.661Z,98422.16
2023-02-19T11:55:59.849Z,98414.19
2023-02-19T11:58:36.804Z,98419.47
2023-02-19T12:00:54.014Z,98412.59
2023-02-19T12:03:23.626Z,98422.75
2023-02-19T12:05:46.754Z,98427.28
2023-02-19T12:08:36.036Z,98428.72
2023-02-19T12:11:00.815Z,98437.25
2023-02-19T12:13:15.276Z,98439.34
2023-02-19T12:15:38.148Z,98438.13
2023-02-19T12:18:22.337Z,98435.53
2023-02-19T12:20:37.616Z,98431.34
2023-02-19T12:22:55.127Z,98420.19
2023-02-19T12:25:26.311Z,98410.69
2023-02-19T12:27:49.464Z,98424.31
2023-02-19T12:30:17.963Z,98415.94
2023-02-19T12:32:57.039Z,98416.13
2023-02-19T12:35:38.713Z,98411.13
2023-02-19T12:37:54.561Z,98409.72
2023-02-19T12:40:21.477Z,98416.53
2023-02-19T12:42:49.262Z,98430.22
2023-02-19T12:45:01.259Z,98428.41
2023-02-19T12:47:16.358Z,98433.69
2023-02-19T12:49:31.618Z,98425.06
2023-02-19T12:51:44.963Z,98432.88
2023-02-19T12:53:58.033Z,98416.88
2023-02-19T12:56:12.379Z,98417.91
2023-02-19T12:58:35.781Z,98418.97
2023-02-19T13:00:50.297Z,98417.59
2023-02-19T13:03:04.010Z,98423.78
2023-02-19T13:05:18.921Z,98419.00
2023-02-19T13:07:33.463Z,98420.69
2023-02-19T13:09:50.043Z,98413.59
2023-02-19T13:12:02.989Z,98418.28
2023-02-19T13:14:24.320Z,98418.38
2023-02-19T13:16:34.911Z,98421.00
2023-02-19T13:18:46.025Z,98416.66
2023-02-19T13:20:55.869Z,98407.19
2023-02-19T13:23:24.120Z,98417.84
2023-02-19T13:25:47.540Z,98406.34
2023-02-19T13:28:09.694Z,98410.34
2023-02-19T13:30:45.548Z,98415.75
2023-02-19T13:33:08.129Z,98418.88
2023-02-19T13:35:28.569Z,98424.72
2023-02-19T13:37:37.404Z,98420.75
2023-02-19T13:39:51.323Z,98416.63
2023-02-19T13:42:02.094Z,98416.91
2023-02-19T13:44:19.698Z,98414.72
2023-02-19T13:46:38.013Z,98412.00
2023-02-19T13:48:47.176Z,98397.69
2023-02-19T13:51:30.012Z,98404.28
2023-02-19T13:54:01.153Z,98406.44
2023-02-19T13:56:41.862Z,98391.34
2023-02-19T13:59:01.623Z,98391.75
2023-02-19T14:01:11.952Z,98396.22
2023-02-19T14:03:31.187Z,98387.72
2023-02-19T14:06:01.653Z,98398.47
2023-02-19T14:08:12.652Z,98388.75
2023-02-19T14:10:50.326Z,98401.66
2023-02-19T14:13:00.846Z,98396.56
2023-02-19T14:15:44.209Z,98396.13
2023-02-19T14:17:55.340Z,98400.84
2023-02-19T14:20:05.274Z,98402.41
2023-02-19T14:22:43.089Z,98389.78
2023-02-19T14:24:51.732Z,98396.84
2023-02-19T14:27:00.482Z,98399.13
2023-02-19T14:29:13.392Z,98393.13
2023-02-19T14:31:30.137Z,98403.69
2023-02-19T14:33:41.116Z,98396.31
2023-02-19T14:35:52.015Z,98404.47
2023-02-19T14:38:02.596Z,98411.59
2023-02-19T14:40:13.579Z,98418.03
2023-02-19T14:42:27.709Z,98410.47
2023-02-19T14:44:49.904Z,98413.31
2023-02-19T14:47:01.880Z,98409.97
2023-02-19T14:49:18.536Z,98411.84
2023-02-19T14:51:35.042Z,98409.97
2023-02-19T14:53:48.177Z,98423.03
2023-02-19T14:55:59.057Z,98431.16
2023-02-19T14:58:14.851Z,98435.28
2023-02-19T15:00:29.940Z,98426.09
2023-02-19T15:02:46.387Z,98430.56
2023-02-19T15:04:55.559Z,98429.97
2023-02-19T15:07:12.018Z,98431.31
2023-02-19T15:09:20.359Z,98439.41
2023-02-19T15:11:32.236Z,98438.91
2023-02-19T15:13:45.630Z,98453.53
2023-02-19T15:15:57.064Z,98439.13
2023-02-19T15:18:08.498Z,98456.75
2023-02-19T15:20:22.023Z,98457.94
2023-02-19T15:22:32.088Z,98456.91
2023-02-19T15:24:40.088Z,98454.50
2023-02-19T15:26:54.270Z,98461.84
2023-02-19T15:29:03.490Z,98459.66
2023-02-19T15:31:19.123Z,98466.50
2023-02-19T15:33:27.868Z,98465.31
2023-02-19T15:35:36.577Z,98472.25
2023-02-19T15:37:44.884Z,98467.22
2023-02-19T15:39:54.437Z,98464.69
2023-02-19T15:42:05.317Z,98468.22
2023-02-19T15:44:30.370Z,98465.97
2023-02-19T15:46:41.429Z,98474.88
2023-02-19T15:48:53.657Z,98468.09
2023-02-19T15:51:08.358Z,98471.09
2023-02-19T15:53:20.534Z,98465.13
2023-02-19T15:55:37.352Z,98457.72
2023-02-19T15:57:50.958Z,98446.69
2023-02-19T16:00:05.398Z,98446.13
2023-02-19T16:02:23.101Z,98444.19
2023-02-19T16:04:31.070Z,98449.97
2023-02-19T16:06:55.236Z,98467.34
2023-02-19T16:09:05.883Z,98464.38
2023-02-19T16:11:30.410Z,98460.09
2023-02-19T16:13:39.327Z,98464.03
2023-02-19T16:16:01.179Z,98471.63
2023-02-19T16:18:18.751Z,98474.03
2023-02-19T16:20:30.243Z,98474.34
2023-02-19T16:22:45.040Z,98475.16
2023-02-19T16:24:56.014Z,98474.53
2023-02-19T16:27:04.590Z,98486.78
2023-02-19T16:29:22.237Z,98487.88
2023-02-19T16:31:30.261Z,98495.06
2023-02-19T16:33:48.513Z,98489.66
2023-02-19T16:35:56.532Z,98481.38
2023-02-19T16:38:04.366Z,98481.16
2023-02-19T16:40:51.744Z,98484.75
2023-02-19T16:43:40.616Z,98478.63
2023-02-19T16:45:49.924Z,98479.50
2023-02-19T16:47:57.843Z,98481.41
2023-02-19T16:50:16.426Z,98479.25
2023-02-19T16:52:24.344Z,98470.34
2023-02-19T16:54:32.191Z,98464.38
2023-02-19T16:56:40.235Z,98469.81
2023-02-19T16:58:48.114Z,98466.50
2023-02-19T17:00:56.230Z,98463.44
2023-02-19T17:03:09.185Z,98467.38
2023-02-19T17:05:21.138Z,98475.44
2023-02-19T17:07:29.205Z,98478.53
2023-02-19T17:09:37.159Z,98481.25
2023-02-19T17:11:45.472Z,98481.97
2023-02-19T17:13:53.898Z,98488.22
2023-02-19T17:16:05.680Z,98493.09
2023-02-19T17:18:14.531Z,98487.34
2023-02-19T17:20:29.303Z,98488.72
2023-02-19T17:22:37.145Z,98489.50
2023-02-19T17:24:46.082Z,98501.28
2023-02-19T17:26:54.075Z,98496.69
2023-02-19T17:29:03.799Z,98502.84
2023-02-19T17:31:12.662Z,98503.44
2023-02-19T17:33:24.625Z,98511.53
2023-02-19T17:35:35.736Z,98510.78
2023-02-19T17:37:43.717Z,98527.69
2023-02-19T17:39:52.177Z,98530.56
2023-02-19T17:42:00.346Z,98533.13
2023-02-19T17:44:08.536Z,98536.84
2023-02-19T17:46:18.601Z,98541.47
2023-02-19T17:48:26.462Z,98543.28
2023-02-19T17:50:37.168Z,98553.31
2023-02-19T17:52:47.352Z,98541.00
2023-02-19T17:54:55.166Z,98541.94
2023-02-19T17:57:03.087Z,98552.75
2023-02-19T17:59:11.080Z,98559.31
2023-02-19T18:01:19.020Z,98558.88
2023-02-19T18:03:26.966Z,98567.59
2023-02-19T18:05:37.493Z,98570.81
2023-02-19T18:07:46.848Z,98575.47
2023-02-19T18:09:54.902Z,98575.19
2023-02-19T18:12:03.059Z,98591.59
2023-02-19T18:14:10.942Z,98597.84
2023-02-19T18:16:19.174Z,98594.81
2023-02-19T18:18:27.221Z,98597.03
2023-02-19T18:20:37.830Z,98604.28
2023-02-19T18:22:46.461Z,98605.31
2023-02-19T18:24:56.595Z,98608.25
2023-02-19T18:27:04.486Z,98613.69
2023-02-19T18:29:12.769Z,98608.72
2023-02-19T18:31:20.585Z,98603.13
2023-02-19T18:33:28.988Z,98606.44
2023-02-19T18:35:40.301Z,98611.75
2023-02-19T18:37:54.201Z,98612.16
2023-02-19T18:40:02.620Z,98617.41
2023-02-19T18:42:10.472Z,98614.47
2023-02-19T18:44:21.303Z,98616.34
2023-02-19T18:46:30.922Z,98610.03
2023-02-19T18:48:40.027Z,98615.16
2023-02-19T18:50:50.555Z,98619.03
2023-02-19T18:52:58.676Z,98613.56
2023-02-19T18:55:06.809Z,98613.56
2023-02-19T18:57:14.861Z,98610.81
2023-02-19T18:59:22.828Z,98620.66
2023-02-19T19:01:31.053Z,98620.75
2023-02-19T19:03:39.005Z,98622.16
2023-02-19T19:05:50.180Z,98618.38
2023-02-19T19:08:02.070Z,98616.00
2023-02-19T19:10:11.690Z,98619.78
2023-02-19T19:12:19.992Z,98623.16
2023-02-19T19:14:27.932Z,98630.72
2023-02-19T19:16:35.869Z,98630.84
2023-02-19T19:18:44.216Z,98630.66
2023-02-19T19:20:56.407Z,98644.38
2023-02-19T19:23:07.350Z,98644.59
2023-02-19T19:25:15.413Z,98657.16
2023-02-19T19:27:24.076Z,98653.13
2023-02-19T19:29:32.226Z,98655.50
2023-02-19T19:31:40.256Z,98649.16
2023-02-19T19:33:49.897Z,98658.72
2023-02-19T19:35:57.976Z,98656.31
2023-02-19T19:38:08.925Z,98653.13
2023-02-19T19:40:18.701Z,98651.47
2023-02-19T19:42:27.110Z,98660.09
2023-02-19T19:44:35.488Z,98657.22
2023-02-19T19:46:48.137Z,98661.75
2023-02-19T19:48:56.197Z,98663.63
2023-02-19T19:51:04.194Z,98669.81
2023-02-19T19:53:15.063Z,98667.16
2023-02-19T19:55:24.010Z,98666.84
2023-02-19T19:57:32.028Z,98669.69
2023-02-19T19:59:40.399Z,98665.19
2023-02-19T20:01:53.068Z,98669.78
2023-02-19T20:04:01.141Z,98661.41
2023-02-19T20:06:10.245Z,98669.00
2023-02-19T20:08:21.253Z,98662.41
2023-02-19T20:10:29.110Z,98666.84
2023-02-19T20:12:37.230Z,98665.91
2023-02-19T20:14:47.591Z,98661.06
2023-02-19T20:16:56.097Z,98667.88
2023-02-19T20:19:04.920Z,98658.81
2023-02-19T20:21:14.184Z,98655.69
2023-02-19T20:23:27.383Z,98657.56
2023-02-19T20:25:35.553Z,98653.91
2023-02-19T20:27:43.724Z,98651.19
2023-02-19T20:29:52.280Z,98650.34
2023-02-19T20:32:03.829Z,98651.69
2023-02-19T20:34:12.031Z,98656.16
2023-02-19T20:36:20.881Z,98656.97
2023-02-19T20:38:31.596Z,98665.31
2023-02-19T20:40:39.406Z,98672.41
2023-02-19T20:42:47.328Z,98676.03
2023-02-19T20:44:56.552Z,98671.53
2023-02-19T20:47:05.599Z,98672.59
2023-02-19T20:49:14.048Z,98668.63
2023-02-19T20:51:21.936Z,98665.03
2023-02-19T20:53:33.430Z,98665.84
2023-02-19T20:55:41.704Z,98664.13
2023-02-19T20:57:49.694Z,98664.94
2023-02-19T20:59:57.722Z,98663.97
2023-02-19T21:02:06.478Z,98664.31
2023-02-19T21:04:15.167Z,98658.34
2023-02-19T21:06:23.460Z,98658.44
2023-02-19T21:08:33.950Z,98656.06
2023-02-19T21:10:41.719Z,98658.50
2023-02-19T21:12:50.718Z,98661.09
2023-02-19T21:14:58.581Z,98660.75
2023-02-19T21:17:06.819Z,98665.00
2023-02-19T21:19:14.979Z,98669.47
2023-02-19T21:21:25.464Z,98666.22
2023-02-19T21:23:36.054Z,98666.69
2023-02-19T21:25:44.035Z,98662.88
2023-02-19T21:27:54.847Z,98666.50
2023-02-19T21:30:02.853Z,98661.19
2023-02-19T21:32:13.898Z,98659.75
2023-02-19T21:34:25.293Z,98660.50
2023-02-19T21:36:33.160Z,98656.53
2023-02-19T21:38:43.881Z,98660.47
2023-02-19T21:40:51.885Z,98671.34
2023-02-19T21:43:00.086Z,98669.88
2023-02-19T21:45:09.064Z,98664.50
2023-02-19T21:47:17.365Z,98663.19
2023-02-19T21:49:25.452Z,98654.84
2023-02-19T21:51:36.474Z,98645.19
2023-02-19T21:53:46.920Z,98640.19
2023-02-19T21:55:58.792Z,98645.06
2023-02-19T21:58:07.093Z,98653.94
2023-02-19T22:00:16.590Z,98643.97
2023-02-19T22:02:24.570Z,98641.50
2023-02-19T22:04:32.524Z,98648.50
2023-02-19T22:06:40.959Z,98644.44
2023-02-19T22:08:51.498Z,98637.84
2023-02-19T22:10:59.234Z,98643.47
2023-02-19T22:13:07.113Z,98643.00
2023-02-19T22:15:15.468Z,98650.25
2023-02-19T22:17:23.601Z,98651.31
2023-02-19T22:19:31.928Z,98651.72
2023-02-19T22:21:45.826Z,98643.50
2023-02-19T22:23:58.508Z,98654.50
2023-02-19T22:26:06.448Z,98657.28
2023-02-19T22:28:14.458Z,98666.25
2023-02-19T22:30:42.355Z,98666.09
2023-02-19T22:32:51.072Z,98668.38
2023-02-19T22:34:59.130Z,98673.91
2023-02-19T22:37:07.131Z,98667.84
2023-02-19T22:39:23.141Z,98667.31
2023-02-19T22:41:31.918Z,98675.53
2023-02-19T22:43:39.887Z,98669.22
2023-02-19T22:45:48.019Z,98674.63
2023-02-19T22:47:57.364Z,98671.00
2023-02-19T22:50:05.487Z,98668.28
2023-02-19T22:52:14.150Z,98670.00
2023-02-19T22:54:27.228Z,98676.81
2023-02-19T22:56:35.039Z,98668.28
2023-02-19T22:58:43.088Z,98672.38
2023-02-19T23:00:51.335Z,98674.03
2023-02-19T23:02:59.747Z,98679.94
2023-02-19T23:05:07.795Z,98678.28
2023-02-19T23:07:15.692Z,98677.72
2023-02-19T23:09:28.030Z,98690.81
2023-02-19T23:11:39.530Z,98691.97
2023-02-19T23:13:47.683Z,98689.66
2023-02-19T23:15:55.596Z,98691.88
2023-02-19T23:18:04.709Z,98700.94
2023-02-19T23:20:13.356Z,98698.00
2023-02-19T23:22:21.297Z,98690.28
2023-02-19T23:24:31.774Z,98693.69
2023-02-19T23:26:44.142Z,98691.97
2023-02-19T23:28:52.765Z,98694.53
2023-02-19T23:31:00.684Z,98685.63
2023-02-19T23:33:08.708Z,98690.28
2023-02-19T23:35:16.676Z,98683.59
2023-02-19T23:37:24.567Z,98691.56
2023-02-19T23:39:35.828Z,98697.63
2023-02-19T23:41:49.586Z,98695.91
2023-02-19T23:43:57.375Z,98698.78
2023-02-19T23:46:05.991Z,98690.41
2023-02-19T23:48:13.798Z,98686.59
2023-02-19T23:50:21.991Z,98689.22
2023-02-19T23:52:29.999Z,98689.53
2023-02-19T23:54:41.785Z,98692.81
2023-02-19T23:56:49.583Z,98690.16
2023-02-19T23:58:58.080Z,98694.84
